Time;durP1;ratioP1;P1;durP2;ratioP2;P2;SDS_P1;SDS_P2;PMS_P1;PMS_P2;Temp;Humidity;BMP_temperature;BMP_pressure;BME280_temperature;BME280_humidity;BME280_pressure;Samples;Min_cycle;Max_cycle;Signal;HPM_P1;HPM_P2
2022/02/19 00:00:48;;;;;;;6.63;1.53;;;8.50;55.50;;;;;;5025312;28;21315;-45
2022/02/19 00:03:15;;;;;;;4.10;1.47;;;8.50;55.60;;;;;;5024616;28;20535;-44
2022/02/19 00:05:42;;;;;;;10.80;2.60;;;8.50;55.20;;;;;;5026892;28;20469;-45
2022/02/19 00:08:11;;;;;;;5.23;2.20;;;8.40;55.60;;;;;;5020702;28;20540;-45
2022/02/19 00:10:37;;;;;;;3.37;1.60;;;8.40;55.10;;;;;;5024407;28;20551;-44
2022/02/19 00:13:04;;;;;;;4.20;2.60;;;8.40;55.10;;;;;;4998196;28;20923;-44
2022/02/19 00:15:31;;;;;;;11.30;3.43;;;8.40;55.30;;;;;;5027413;28;20527;-44
2022/02/19 00:17:58;;;;;;;5.43;1.87;;;8.40;54.90;;;;;;5030626;28;21059;-45
2022/02/19 00:20:25;;;;;;;6.40;1.60;;;8.40;55.10;;;;;;5011212;28;20460;-45
2022/02/19 00:22:52;;;;;;;5.77;1.87;;;8.40;55.20;;;;;;5011820;28;20491;-45
2022/02/19 00:25:20;;;;;;;3.60;1.37;;;8.40;55.10;;;;;;5014664;28;20444;-45
2022/02/19 00:27:47;;;;;;;2.57;1.30;;;8.40;55.00;;;;;;5030323;28;20455;-45
2022/02/19 00:30:14;;;;;;;5.63;1.50;;;8.40;54.90;;;;;;5015850;28;20543;-45
2022/02/19 00:32:41;;;;;;;4.90;1.60;;;8.30;54.90;;;;;;5030094;28;20522;-45
2022/02/19 00:35:08;;;;;;;5.97;1.70;;;8.30;54.90;;;;;;5015900;28;20443;-45
2022/02/19 00:37:34;;;;;;;10.00;2.83;;;8.30;54.70;;;;;;5029843;28;20455;-45
2022/02/19 00:40:02;;;;;;;6.00;1.67;;;8.30;54.60;;;;;;5023757;28;20451;-45
2022/02/19 00:42:29;;;;;;;5.90;1.70;;;8.30;55.00;;;;;;5012047;28;20514;-45
2022/02/19 00:44:55;;;;;;;5.63;1.40;;;8.30;55.10;;;;;;5028679;28;20460;-45
2022/02/19 00:47:22;;;;;;;6.27;1.53;;;8.30;55.70;;;;;;5027278;28;20498;-45
2022/02/19 00:49:49;;;;;;;4.37;1.70;;;8.30;56.20;;;;;;5013774;28;20454;-45
2022/02/19 00:52:16;;;;;;;4.80;1.33;;;8.30;56.80;;;;;;5029275;28;20448;-45
2022/02/19 00:54:42;;;;;;;3.40;1.00;;;8.30;57.70;;;;;;5024442;28;20813;-45
2022/02/19 00:57:10;;;;;;;4.63;1.43;;;8.20;58.70;;;;;;5012151;28;20704;-45
2022/02/19 00:59:37;;;;;;;6.53;1.57;;;8.20;60.00;;;;;;5025915;28;20989;-45
2022/02/19 01:02:04;;;;;;;3.80;1.80;;;8.20;61.00;;;;;;5024930;28;20840;-45
2022/02/19 01:04:30;;;;;;;5.13;1.60;;;8.10;62.10;;;;;;5014629;28;20470;-45
2022/02/19 01:06:57;;;;;;;6.57;1.73;;;8.00;62.70;;;;;;5028300;28;20459;-45
2022/02/19 01:09:26;;;;;;;5.23;1.03;;;8.00;63.40;;;;;;5029682;28;21003;-45
2022/02/19 01:11:54;;;;;;;8.47;1.73;;;7.90;63.70;;;;;;5029437;28;20455;-45
2022/02/19 01:14:21;;;;;;;7.93;2.10;;;7.90;63.90;;;;;;5029158;28;20487;-45
2022/02/19 01:16:48;;;;;;;6.40;1.90;;;7.80;64.30;;;;;;5027690;28;20910;-45
2022/02/19 01:19:15;;;;;;;8.67;1.80;;;7.70;64.60;;;;;;5028982;28;20452;-45
2022/02/19 01:21:42;;;;;;;7.37;1.30;;;7.70;64.30;;;;;;5026876;28;20466;-45
2022/02/19 01:24:09;;;;;;;5.10;1.80;;;7.60;64.30;;;;;;5027088;28;20491;-45
2022/02/19 01:26:35;;;;;;;6.57;1.97;;;7.60;64.30;;;;;;5028676;28;20451;-45
2022/02/19 01:29:04;;;;;;;6.10;1.77;;;7.60;63.60;;;;;;5026476;28;20480;-45
2022/02/19 01:31:33;;;;;;;8.33;2.23;;;7.60;63.60;;;;;;5026695;28;20452;-45
2022/02/19 01:34:00;;;;;;;8.13;1.80;;;7.50;63.30;;;;;;5012698;28;20526;-45
2022/02/19 01:36:27;;;;;;;10.40;2.03;;;7.50;62.60;;;;;;5014959;28;20464;-45
2022/02/19 01:38:53;;;;;;;10.03;2.30;;;7.50;62.20;;;;;;5029589;28;20494;-45
2022/02/19 01:41:20;;;;;;;5.13;1.73;;;7.50;62.20;;;;;;5029199;28;20452;-45
2022/02/19 01:43:48;;;;;;;7.90;1.77;;;7.50;61.60;;;;;;5028229;28;20487;-45
2022/02/19 01:46:15;;;;;;;6.27;2.47;;;7.60;61.20;;;;;;5027796;28;20506;-45
2022/02/19 01:48:42;;;;;;;6.10;1.40;;;7.60;60.20;;;;;;5027847;28;20467;-45
2022/02/19 01:51:09;;;;;;;9.37;2.37;;;7.60;59.00;;;;;;5013229;28;20451;-45
2022/02/19 01:53:37;;;;;;;7.13;1.53;;;7.60;59.20;;;;;;5027612;28;20584;-45
2022/02/19 01:56:04;;;;;;;5.93;1.80;;;7.70;58.20;;;;;;5028982;28;20807;-45
2022/02/19 01:58:33;;;;;;;3.27;1.57;;;7.70;58.00;;;;;;5010852;28;20470;-45
2022/02/19 02:01:06;;;;;;;7.97;2.03;;;7.80;57.80;;;;;;5021746;28;20459;-45
2022/02/19 02:03:33;;;;;;;3.70;1.90;;;7.80;57.20;;;;;;5012429;28;20494;-45
2022/02/19 02:06:00;;;;;;;5.50;2.23;;;7.80;56.50;;;;;;5010897;28;20458;-45
2022/02/19 02:08:27;;;;;;;1.93;1.20;;;7.80;56.40;;;;;;5027622;28;20518;-45
2022/02/19 02:10:54;;;;;;;4.80;1.40;;;7.90;56.20;;;;;;5028073;28;20869;-45
2022/02/19 02:13:21;;;;;;;3.63;1.50;;;7.80;55.90;;;;;;5012497;28;20455;-45
2022/02/19 02:15:52;;;;;;;8.37;1.87;;;7.80;56.10;;;;;;5027159;28;20809;-45
2022/02/19 02:18:18;;;;;;;4.30;1.77;;;7.80;56.00;;;;;;5027732;28;20499;-45
2022/02/19 02:20:45;;;;;;;6.67;2.90;;;7.80;55.70;;;;;;5012650;28;20455;-45
2022/02/19 02:23:14;;;;;;;5.57;1.30;;;7.80;55.70;;;;;;5027256;28;20987;-45
2022/02/19 02:25:42;;;;;;;6.47;1.67;;;7.80;56.30;;;;;;5007606;28;20463;-45
2022/02/19 02:28:09;;;;;;;4.03;1.37;;;7.80;56.10;;;;;;5027775;28;20980;-45
2022/02/19 02:30:37;;;;;;;3.57;1.63;;;7.80;55.80;;;;;;5001906;28;20463;-46
2022/02/19 02:33:07;;;;;;;5.93;1.43;;;7.80;56.60;;;;;;5024382;28;20477;-45
2022/02/19 02:35:34;;;;;;;9.40;1.70;;;7.80;57.30;;;;;;5023375;28;20473;-45
2022/02/19 02:38:02;;;;;;;4.97;1.43;;;7.80;57.60;;;;;;5025577;28;20506;-45
2022/02/19 02:40:30;;;;;;;9.57;1.17;;;7.80;57.40;;;;;;4991243;28;20466;-44
2022/02/19 02:42:57;;;;;;;3.63;1.10;;;7.80;56.90;;;;;;5024812;28;20485;-45
2022/02/19 02:45:26;;;;;;;5.17;1.57;;;7.80;56.90;;;;;;5027351;28;20982;-45
2022/02/19 02:48:12;;;;;;;8.00;1.77;;;7.80;57.10;;;;;;5026316;28;20462;-45
2022/02/19 02:50:39;;;;;;;6.67;1.40;;;7.70;57.20;;;;;;5026922;28;20489;-44
2022/02/19 02:53:26;;;;;;;5.33;1.20;;;7.70;56.90;;;;;;5011875;28;20447;-45
2022/02/19 02:55:53;;;;;;;5.60;1.27;;;7.70;56.80;;;;;;5027859;28;20450;-45
2022/02/19 02:58:21;;;;;;;6.67;1.50;;;7.70;57.00;;;;;;5023812;28;20538;-45
2022/02/19 03:00:48;;;;;;;3.23;1.20;;;7.70;57.00;;;;;;5011780;28;20501;-45
2022/02/19 03:03:15;;;;;;;8.00;1.60;;;7.70;57.70;;;;;;5025988;28;20499;-45
2022/02/19 03:05:42;;;;;;;3.13;2.03;;;7.70;58.50;;;;;;5026550;28;20456;-45
2022/02/19 03:08:09;;;;;;;4.47;1.20;;;7.70;59.00;;;;;;5012083;28;20554;-45
2022/02/19 03:10:36;;;;;;;4.93;1.10;;;7.60;59.70;;;;;;5027983;28;20484;-44
2022/02/19 03:13:03;;;;;;;1.40;1.30;;;7.60;59.50;;;;;;5029207;28;20972;-44
2022/02/19 03:15:29;;;;;;;3.10;1.37;;;7.60;60.40;;;;;;5012309;28;21157;-45
2022/02/19 03:17:56;;;;;;;5.37;2.30;;;7.60;60.70;;;;;;5027177;28;20455;-45
2022/02/19 03:20:25;;;;;;;10.63;2.40;;;7.60;60.90;;;;;;5026088;28;20538;-44
2022/02/19 03:22:51;;;;;;;4.10;1.00;;;7.60;61.60;;;;;;5027661;28;20487;-44
2022/02/19 03:25:18;;;;;;;7.50;1.70;;;7.60;62.00;;;;;;5025497;28;20465;-45
2022/02/19 03:27:45;;;;;;;8.07;1.63;;;7.50;62.30;;;;;;5024849;28;20466;-45
2022/02/19 03:30:12;;;;;;;5.83;1.27;;;7.50;62.80;;;;;;5023368;28;20459;-44
2022/02/19 03:32:41;;;;;;;8.30;2.00;;;7.50;63.10;;;;;;5023844;28;20551;-44
2022/02/19 03:35:08;;;;;;;5.57;1.53;;;7.40;63.40;;;;;;5025237;28;20468;-44
2022/02/19 03:37:37;;;;;;;8.20;2.00;;;7.50;63.30;;;;;;5024113;28;20466;-45
2022/02/19 03:40:06;;;;;;;3.80;1.60;;;7.40;63.00;;;;;;5024750;28;20473;-45
2022/02/19 03:42:34;;;;;;;6.53;1.93;;;7.40;61.30;;;;;;4985420;28;20483;-45
2022/02/19 03:45:01;;;;;;;4.40;1.50;;;7.40;59.90;;;;;;5023192;28;20566;-45
2022/02/19 03:47:28;;;;;;;6.83;1.17;;;7.40;58.70;;;;;;5006026;28;20481;-45
2022/02/19 03:49:55;;;;;;;2.53;1.23;;;7.40;58.80;;;;;;5025342;28;20467;-45
2022/02/19 03:52:22;;;;;;;3.63;1.10;;;7.40;58.70;;;;;;5009209;28;20447;-45
2022/02/19 03:54:49;;;;;;;9.30;1.67;;;7.40;57.90;;;;;;5012007;28;20972;-44
2022/02/19 03:57:17;;;;;;;6.23;1.57;;;7.40;57.70;;;;;;5026726;28;20470;-44
2022/02/19 03:59:43;;;;;;;4.87;1.40;;;7.40;57.70;;;;;;5028609;28;20537;-44
2022/02/19 04:02:10;;;;;;;3.30;1.40;;;7.40;58.50;;;;;;5028165;28;20459;-45
2022/02/19 04:04:37;;;;;;;4.10;1.13;;;7.40;59.00;;;;;;5027134;28;20487;-45
2022/02/19 04:07:04;;;;;;;5.40;1.63;;;7.40;60.30;;;;;;5027026;28;21167;-44
2022/02/19 04:09:31;;;;;;;3.10;1.20;;;7.40;63.40;;;;;;5026688;28;20911;-44
2022/02/19 04:11:58;;;;;;;3.83;1.20;;;7.30;64.00;;;;;;5027362;28;20455;-45
2022/02/19 04:14:24;;;;;;;5.50;1.20;;;7.20;62.80;;;;;;5012578;28;20455;-45
2022/02/19 04:16:51;;;;;;;7.23;1.20;;;7.20;60.80;;;;;;5029240;28;21002;-45
2022/02/19 04:19:18;;;;;;;5.50;1.70;;;7.20;60.80;;;;;;5026375;28;20464;-45
2022/02/19 04:21:45;;;;;;;7.77;2.30;;;7.10;61.00;;;;;;5026417;28;20984;-45
2022/02/19 04:24:12;;;;;;;4.77;1.10;;;7.10;61.20;;;;;;5029878;28;20479;-45
2022/02/19 04:26:38;;;;;;;5.10;1.40;;;7.10;60.90;;;;;;5027473;28;20463;-45
2022/02/19 04:29:05;;;;;;;1.73;1.40;;;7.00;60.90;;;;;;5027801;28;20455;-45
2022/02/19 04:31:32;;;;;;;3.80;1.13;;;7.00;60.90;;;;;;5027114;28;20474;-44
2022/02/19 04:33:58;;;;;;;3.77;2.00;;;7.00;61.10;;;;;;5027873;28;20896;-45
2022/02/19 04:36:25;;;;;;;8.17;1.50;;;6.90;61.40;;;;;;5028647;28;20467;-46
2022/02/19 04:38:52;;;;;;;5.80;1.53;;;6.90;61.30;;;;;;5026346;28;20463;-45
2022/02/19 04:41:19;;;;;;;6.73;2.23;;;6.90;61.40;;;;;;5027060;28;20463;-45
2022/02/19 04:43:45;;;;;;;5.40;1.00;;;6.90;61.50;;;;;;5025633;28;20499;-45
2022/02/19 04:46:13;;;;;;;2.93;0.87;;;6.90;61.50;;;;;;5022257;28;20507;-45
2022/02/19 04:48:40;;;;;;;4.30;1.30;;;6.90;61.20;;;;;;5024841;28;21027;-45
2022/02/19 04:51:07;;;;;;;2.63;1.20;;;6.80;61.50;;;;;;5027437;28;20467;-45
2022/02/19 04:53:34;;;;;;;4.47;1.40;;;6.80;61.80;;;;;;5011805;28;20532;-45
2022/02/19 04:56:01;;;;;;;4.57;1.60;;;6.80;61.40;;;;;;5010873;28;21011;-44
2022/02/19 04:58:28;;;;;;;2.20;1.40;;;6.80;61.40;;;;;;5010024;28;20465;-45
2022/02/19 05:00:54;;;;;;;3.40;1.30;;;6.80;61.60;;;;;;5026585;28;20493;-45
2022/02/19 05:03:21;;;;;;;4.83;1.73;;;6.80;61.40;;;;;;5027753;28;21015;-45
2022/02/19 05:05:48;;;;;;;3.23;1.33;;;6.80;61.20;;;;;;5027827;28;20496;-45
2022/02/19 05:08:15;;;;;;;5.40;2.00;;;6.70;61.10;;;;;;5009857;28;20821;-45
2022/02/19 05:10:42;;;;;;;4.27;1.30;;;6.70;61.30;;;;;;4992494;28;21065;-46
2022/02/19 05:13:08;;;;;;;4.30;1.60;;;6.70;61.10;;;;;;5025624;28;21330;-45
2022/02/19 05:15:35;;;;;;;9.13;2.23;;;6.70;61.30;;;;;;5009013;28;20485;-45
2022/02/19 05:18:05;;;;;;;4.50;1.57;;;6.70;61.90;;;;;;5009638;28;20952;-45
2022/02/19 05:20:32;;;;;;;2.00;0.90;;;6.70;61.90;;;;;;5026240;28;20463;-45
2022/02/19 05:22:59;;;;;;;4.23;1.53;;;6.70;61.40;;;;;;5025550;28;20451;-45
2022/02/19 05:25:26;;;;;;;4.30;1.50;;;6.70;61.80;;;;;;5027821;28;20982;-45
2022/02/19 05:27:52;;;;;;;4.87;1.30;;;6.60;61.80;;;;;;5025639;28;20805;-45
2022/02/19 05:30:19;;;;;;;8.10;2.20;;;6.60;61.60;;;;;;5010154;28;20547;-45
2022/02/19 05:32:46;;;;;;;5.13;1.43;;;6.60;61.80;;;;;;5026437;28;20460;-45
2022/02/19 05:35:13;;;;;;;5.60;2.00;;;6.60;61.70;;;;;;5026208;28;20466;-45
2022/02/19 05:37:40;;;;;;;2.60;1.03;;;6.60;61.90;;;;;;5009242;28;20464;-45
2022/02/19 05:40:08;;;;;;;4.77;1.10;;;6.60;62.50;;;;;;5011808;28;20459;-45
2022/02/19 05:42:34;;;;;;;5.07;1.43;;;6.60;62.80;;;;;;5027333;28;20467;-45
2022/02/19 05:45:01;;;;;;;4.40;1.23;;;6.60;62.50;;;;;;5008451;28;20495;-45
2022/02/19 05:47:28;;;;;;;5.40;1.70;;;6.60;62.50;;;;;;5025983;28;20855;-45
2022/02/19 05:49:55;;;;;;;4.53;1.67;;;6.60;62.70;;;;;;5014430;28;20463;-45
2022/02/19 05:52:22;;;;;;;3.40;1.33;;;6.60;62.40;;;;;;5024845;28;20470;-45
2022/02/19 05:54:51;;;;;;;3.20;1.43;;;6.50;62.70;;;;;;5007079;28;20467;-46
2022/02/19 05:57:18;;;;;;;7.07;1.73;;;6.50;62.70;;;;;;5021430;28;20747;-45
2022/02/19 05:59:44;;;;;;;4.77;1.70;;;6.50;62.90;;;;;;5011316;28;20562;-46
2022/02/19 06:02:11;;;;;;;3.00;1.20;;;6.50;62.50;;;;;;5025606;28;20546;-44
2022/02/19 06:04:38;;;;;;;8.87;1.93;;;6.50;62.70;;;;;;5023117;28;20491;-44
2022/02/19 06:07:05;;;;;;;2.50;0.83;;;6.50;62.70;;;;;;5026145;28;20471;-45
2022/02/19 06:09:32;;;;;;;4.87;1.23;;;6.50;62.50;;;;;;5024697;28;20827;-44
2022/02/19 06:11:59;;;;;;;6.23;1.40;;;6.50;62.90;;;;;;5026692;28;20639;-44
2022/02/19 06:14:25;;;;;;;3.00;1.50;;;6.50;62.90;;;;;;5026682;28;21007;-45
2022/02/19 06:16:52;;;;;;;2.30;0.87;;;6.50;62.10;;;;;;5026301;28;20467;-45
2022/02/19 06:19:19;;;;;;;2.20;0.87;;;6.50;62.60;;;;;;5023469;28;20497;-45
2022/02/19 06:21:46;;;;;;;6.47;1.90;;;6.50;62.40;;;;;;5022280;28;20940;-45
2022/02/19 06:24:12;;;;;;;6.40;1.53;;;6.50;62.30;;;;;;5026485;28;20487;-45
2022/02/19 06:26:39;;;;;;;6.17;1.70;;;6.40;62.60;;;;;;5025883;28;20455;-45
2022/02/19 06:29:06;;;;;;;2.10;1.10;;;6.40;62.60;;;;;;5009330;28;22435;-45
2022/02/19 06:31:33;;;;;;;5.37;1.30;;;6.40;63.10;;;;;;5008981;28;20995;-45
2022/02/19 06:34:00;;;;;;;1.83;0.97;;;6.40;62.40;;;;;;5010370;28;20463;-45
2022/02/19 06:36:27;;;;;;;3.90;1.47;;;6.40;62.80;;;;;;5023881;28;20968;-46
2022/02/19 06:38:54;;;;;;;10.13;2.07;;;6.30;62.90;;;;;;5026430;28;20525;-45
2022/02/19 06:41:21;;;;;;;6.23;1.63;;;6.30;63.00;;;;;;5007626;28;20458;-45
2022/02/19 06:43:47;;;;;;;4.97;1.17;;;6.30;63.40;;;;;;5026091;28;20840;-45
2022/02/19 06:46:14;;;;;;;1.80;1.07;;;6.30;63.10;;;;;;5023943;28;20483;-45
2022/02/19 06:48:41;;;;;;;6.00;1.60;;;6.30;63.50;;;;;;5024165;28;20463;-45
2022/02/19 06:51:08;;;;;;;3.63;1.20;;;6.40;63.70;;;;;;5024184;28;20559;-45
2022/02/19 06:53:36;;;;;;;2.60;1.10;;;6.40;63.40;;;;;;5018556;28;20461;-45
2022/02/19 06:56:04;;;;;;;3.20;1.10;;;6.40;63.10;;;;;;5026389;28;20464;-45
2022/02/19 06:58:31;;;;;;;3.67;1.10;;;6.40;63.20;;;;;;5016459;28;20486;-45
2022/02/19 07:00:57;;;;;;;3.40;1.37;;;6.40;63.40;;;;;;5027693;28;20530;-45
2022/02/19 07:03:24;;;;;;;2.83;1.70;;;6.40;63.00;;;;;;5025518;28;20488;-45
2022/02/19 07:05:53;;;;;;;8.03;1.50;;;6.40;62.50;;;;;;5023262;28;20451;-45
2022/02/19 07:08:20;;;;;;;3.33;1.37;;;6.40;62.40;;;;;;5025129;28;20466;-45
2022/02/19 07:10:48;;;;;;;3.97;1.40;;;6.40;62.60;;;;;;5026014;28;20458;-46
2022/02/19 07:13:14;;;;;;;5.80;1.20;;;6.40;62.50;;;;;;5026766;28;20551;-45
2022/02/19 07:15:42;;;;;;;4.57;1.73;;;6.40;62.20;;;;;;5025781;28;20467;-44
2022/02/19 07:18:08;;;;;;;2.80;1.87;;;6.40;62.30;;;;;;5026304;28;20452;-45
2022/02/19 07:20:37;;;;;;;6.70;1.50;;;6.40;62.20;;;;;;5023472;28;22045;-44
2022/02/19 07:23:04;;;;;;;6.73;1.70;;;6.40;61.90;;;;;;5023787;28;20467;-45
2022/02/19 07:25:31;;;;;;;5.23;1.93;;;6.40;62.20;;;;;;5008807;28;20558;-45
2022/02/19 07:27:58;;;;;;;4.87;1.33;;;6.50;62.20;;;;;;5025229;28;20458;-45
2022/02/19 07:30:26;;;;;;;2.20;0.93;;;6.50;62.10;;;;;;5025474;28;20550;-45
2022/02/19 07:32:53;;;;;;;5.03;0.80;;;6.50;62.00;;;;;;5025111;28;20466;-45
2022/02/19 07:35:21;;;;;;;12.93;2.93;;;6.50;62.10;;;;;;5023576;28;20474;-46
2022/02/19 07:37:48;;;;;;;5.13;1.13;;;6.50;61.90;;;;;;5026068;28;20854;-45
2022/02/19 07:40:15;;;;;;;5.03;2.10;;;6.50;61.70;;;;;;5026385;28;20460;-44
2022/02/19 07:42:42;;;;;;;3.60;1.67;;;6.50;61.60;;;;;;5029342;28;20494;-45
2022/02/19 07:45:09;;;;;;;6.77;1.40;;;6.50;62.00;;;;;;5009583;28;20902;-45
2022/02/19 07:47:36;;;;;;;7.00;1.30;;;6.60;61.90;;;;;;5024982;28;20882;-45
2022/02/19 07:58:39;;;;;;;6.80;1.90;;;6.70;62.90;;;;;;4994805;28;20832;-45
2022/02/19 08:01:08;;;;;;;5.23;1.40;;;6.70;62.40;;;;;;5023740;28;20483;-45
2022/02/19 08:03:35;;;;;;;3.10;1.20;;;6.70;61.70;;;;;;5024606;28;20463;-45
2022/02/19 08:06:04;;;;;;;3.50;1.27;;;6.70;61.20;;;;;;5010744;28;20471;-45
2022/02/19 08:08:33;;;;;;;2.23;1.17;;;6.80;61.00;;;;;;5023650;28;20459;-44
2022/02/19 08:11:00;;;;;;;4.13;1.20;;;6.80;61.30;;;;;;5025601;28;20455;-44
2022/02/19 08:13:27;;;;;;;5.53;1.33;;;6.80;60.50;;;;;;5023992;28;20475;-44
2022/02/19 08:15:53;;;;;;;5.23;1.40;;;6.90;60.20;;;;;;5022948;28;20482;-44
2022/02/19 08:18:20;;;;;;;3.33;1.37;;;6.90;60.80;;;;;;5006976;28;20463;-45
2022/02/19 08:20:49;;;;;;;2.10;1.23;;;6.90;60.60;;;;;;5011514;28;21079;-45
2022/02/19 08:23:18;;;;;;;3.77;1.03;;;7.00;60.40;;;;;;5005041;28;21016;-45
2022/02/19 08:25:46;;;;;;;5.00;1.03;;;7.00;60.80;;;;;;5018188;28;20495;-45
2022/02/19 08:28:13;;;;;;;8.13;1.80;;;7.10;60.20;;;;;;5022260;28;20459;-44
2022/02/19 08:30:42;;;;;;;4.40;1.33;;;7.20;60.40;;;;;;5022717;28;20491;-44
2022/02/19 08:33:10;;;;;;;3.27;1.40;;;7.30;60.20;;;;;;5020749;28;20471;-44
2022/02/19 08:35:37;;;;;;;4.53;1.40;;;7.30;58.80;;;;;;5003076;28;20470;-44
2022/02/19 08:38:07;;;;;;;4.80;1.80;;;7.40;58.70;;;;;;5008518;28;20469;-44
2022/02/19 08:40:35;;;;;;;2.20;0.87;;;7.40;59.10;;;;;;4995083;28;20501;-45
2022/02/19 08:43:02;;;;;;;4.80;1.57;;;7.40;58.80;;;;;;5012953;28;20461;-45
2022/02/19 08:45:28;;;;;;;10.93;3.10;;;7.50;59.10;;;;;;5025680;28;21007;-45
2022/02/19 08:48:04;;;;;;;3.90;1.30;;;7.50;59.10;;;;;;5026458;28;20494;-45
2022/02/19 08:50:37;;;;;;;8.20;1.80;;;7.60;58.00;;;;;;5008478;28;20459;-45
2022/02/19 08:53:08;;;;;;;6.07;2.10;;;7.60;57.20;;;;;;5025956;28;20485;-44
2022/02/19 08:55:35;;;;;;;4.73;1.70;;;7.60;58.00;;;;;;5007031;28;20459;-44
2022/02/19 08:58:02;;;;;;;6.03;1.57;;;7.70;58.20;;;;;;5025249;28;20475;-44
2022/02/19 09:00:28;;;;;;;5.70;1.50;;;7.80;57.90;;;;;;5011118;28;20844;-44
2022/02/19 09:02:55;;;;;;;5.67;1.43;;;7.80;56.80;;;;;;5006569;28;20895;-44
2022/02/19 09:05:23;;;;;;;2.63;1.27;;;7.90;57.70;;;;;;5024463;28;20890;-45
2022/02/19 09:07:49;;;;;;;5.43;1.20;;;7.90;57.70;;;;;;5029124;28;21006;-44
2022/02/19 09:10:17;;;;;;;7.03;1.60;;;7.90;57.80;;;;;;5029562;28;20447;-45
2022/02/19 09:12:49;;;;;;;4.13;1.47;;;8.00;56.40;;;;;;5011298;28;20459;-45
2022/02/19 09:15:19;;;;;;;7.70;2.10;;;8.00;57.20;;;;;;5023165;28;20540;-45
2022/02/19 09:17:46;;;;;;;7.23;1.60;;;8.00;57.70;;;;;;5006380;28;21083;-44
2022/02/19 09:20:14;;;;;;;7.43;1.93;;;8.00;57.40;;;;;;5006741;28;20456;-45
2022/02/19 09:22:40;;;;;;;8.27;1.73;;;8.00;57.10;;;;;;5008670;28;20953;-44
2022/02/19 09:25:11;;;;;;;3.53;1.30;;;8.00;57.50;;;;;;5026760;28;20491;-44
2022/02/19 09:27:39;;;;;;;8.80;1.57;;;8.10;57.20;;;;;;5001503;28;20463;-44
2022/02/19 09:30:07;;;;;;;5.20;1.53;;;8.10;56.00;;;;;;5022863;28;20546;-44
2022/02/19 09:32:35;;;;;;;3.33;1.30;;;8.10;56.20;;;;;;5026151;28;20975;-44
2022/02/19 09:35:03;;;;;;;3.73;1.20;;;8.20;56.60;;;;;;5025276;28;20463;-44
2022/02/19 09:37:30;;;;;;;2.07;1.27;;;8.20;55.70;;;;;;4991136;28;20478;-44
2022/02/19 09:40:02;;;;;;;4.07;2.07;;;8.20;56.40;;;;;;5009302;28;20468;-44
2022/02/19 09:42:29;;;;;;;4.10;2.20;;;8.30;57.00;;;;;;5021528;28;20486;-44
2022/02/19 09:44:57;;;;;;;2.60;1.43;;;8.40;56.20;;;;;;5025841;28;21006;-44
2022/02/19 09:47:27;;;;;;;2.33;1.27;;;8.40;55.20;;;;;;5025318;28;20505;-44
2022/02/19 09:49:55;;;;;;;2.53;2.03;;;8.50;55.30;;;;;;5008743;28;20484;-44
2022/02/19 09:52:25;;;;;;;4.60;1.70;;;8.50;55.50;;;;;;5023270;28;20919;-44
2022/02/19 09:55:00;;;;;;;6.60;0.80;;;8.60;56.40;;;;;;5012077;28;20487;-44
2022/02/19 09:57:27;;;;;;;4.57;1.37;;;8.60;54.70;;;;;;5027269;28;20452;-44
2022/02/19 09:59:54;;;;;;;8.73;1.33;;;8.70;55.30;;;;;;5028158;28;21224;-45
2022/02/19 10:02:31;;;;;;;3.87;1.27;;;8.80;55.50;;;;;;5029049;28;20462;-44
2022/02/19 10:05:24;;;;;;;4.83;1.57;;;8.90;56.40;;;;;;4995294;28;20479;-44
2022/02/19 10:08:04;;;;;;;3.20;1.63;;;9.10;54.50;;;;;;5011986;28;20550;-44
2022/02/19 10:10:34;;;;;;;1.00;0.70;;;9.20;54.40;;;;;;5026887;28;20455;-44
2022/02/19 10:13:08;;;;;;;5.50;1.77;;;9.30;54.20;;;;;;5024058;28;20486;-45
2022/02/19 10:15:51;;;;;;;3.77;1.13;;;9.40;54.10;;;;;;5021700;28;20552;-44
2022/02/19 10:18:28;;;;;;;7.17;1.70;;;9.50;52.90;;;;;;5018531;28;20960;-44
2022/02/19 10:21:21;;;;;;;2.53;0.90;;;9.60;53.60;;;;;;5002020;28;20502;-44
2022/02/19 10:23:54;;;;;;;4.10;1.30;;;9.70;52.90;;;;;;5020575;28;20467;-44
2022/02/19 10:26:24;;;;;;;3.70;0.87;;;9.70;52.00;;;;;;5018582;28;20484;-44
2022/02/19 10:29:07;;;;;;;5.40;1.70;;;9.80;52.70;;;;;;5020815;28;20470;-45
2022/02/19 10:31:35;;;;;;;4.13;1.07;;;9.90;52.50;;;;;;5007410;28;20459;-45
2022/02/19 10:34:13;;;;;;;2.00;0.97;;;10.00;51.90;;;;;;5007274;28;20460;-44
2022/02/19 10:36:50;;;;;;;3.03;1.40;;;10.00;51.20;;;;;;5024618;28;20831;-44
2022/02/19 10:39:30;;;;;;;5.73;1.50;;;10.00;51.40;;;;;;5028537;28;20451;-44
2022/02/19 10:42:06;;;;;;;3.00;1.30;;;10.10;52.00;;;;;;5008159;28;20487;-44
2022/02/19 10:44:34;;;;;;;2.97;1.47;;;10.20;51.20;;;;;;5002347;28;20823;-44
2022/02/19 10:47:19;;;;;;;1.77;1.00;;;10.20;51.10;;;;;;5023295;28;20473;-44
2022/02/19 10:50:10;;;;;;;4.03;1.07;;;10.20;51.00;;;;;;5012760;28;20473;-45
2022/02/19 10:52:42;;;;;;;4.73;1.33;;;10.10;51.00;;;;;;5025707;28;20466;-44
2022/02/19 10:55:12;;;;;;;2.97;1.47;;;10.00;51.20;;;;;;5024461;28;20472;-45
2022/02/19 10:57:44;;;;;;;6.93;1.63;;;9.90;51.60;;;;;;5026207;28;20955;-45
2022/02/19 11:00:17;;;;;;;9.20;2.03;;;9.90;51.90;;;;;;5011381;28;20448;-44
2022/02/19 11:02:49;;;;;;;8.60;1.57;;;9.90;53.20;;;;;;5011152;28;20463;-44
2022/02/19 11:05:19;;;;;;;3.80;1.60;;;10.00;52.90;;;;;;5004736;28;20855;-44
2022/02/19 11:07:48;;;;;;;2.20;1.00;;;10.10;53.60;;;;;;5002817;28;20463;-44
2022/02/19 11:10:21;;;;;;;1.70;1.20;;;10.20;52.90;;;;;;5020906;28;20459;-44
2022/02/19 11:12:49;;;;;;;1.83;1.03;;;10.20;52.90;;;;;;5008256;28;20558;-45
2022/02/19 11:15:18;;;;;;;5.17;1.40;;;10.20;51.90;;;;;;5004531;28;20498;-45
2022/02/19 11:17:49;;;;;;;1.83;1.30;;;10.20;52.30;;;;;;5005168;28;20986;-45
2022/02/19 11:20:16;;;;;;;7.57;1.10;;;10.20;52.00;;;;;;5006927;28;20581;-46
2022/02/19 11:22:44;;;;;;;5.17;1.33;;;10.30;51.20;;;;;;5019639;28;20609;-45
2022/02/19 11:25:16;;;;;;;4.40;1.10;;;10.40;51.60;;;;;;5020113;28;20482;-45
2022/02/19 11:27:54;;;;;;;8.03;2.20;;;10.30;51.70;;;;;;5023695;28;20496;-45
2022/02/19 11:30:24;;;;;;;3.07;1.40;;;10.20;51.60;;;;;;5024659;28;20833;-45
2022/02/19 11:32:54;;;;;;;6.83;1.40;;;10.30;53.00;;;;;;5020472;28;20481;-45
2022/02/19 11:35:40;;;;;;;3.43;1.00;;;10.40;52.40;;;;;;5024414;28;20538;-45
2022/02/19 11:38:25;;;;;;;4.50;1.07;;;10.40;52.00;;;;;;5006406;28;20498;-45
2022/02/19 11:40:55;;;;;;;2.70;1.00;;;10.40;51.00;;;;;;5022713;28;20482;-45
2022/02/19 11:43:41;;;;;;;2.67;0.87;;;10.30;50.60;;;;;;5008784;28;20455;-45
2022/02/19 11:46:14;;;;;;;2.30;0.70;;;10.30;51.20;;;;;;5024643;28;20499;-46
2022/02/19 11:48:50;;;;;;;2.43;1.00;;;10.20;50.80;;;;;;5021484;28;20471;-45
2022/02/19 11:51:27;;;;;;;5.17;1.73;;;10.20;51.60;;;;;;5022353;28;20455;-45
2022/02/19 11:54:03;;;;;;;7.73;2.40;;;10.20;52.20;;;;;;5019154;28;20543;-45
2022/02/19 11:56:35;;;;;;;6.23;1.77;;;10.20;52.60;;;;;;5022929;28;20463;-45
2022/02/19 11:59:05;;;;;;;2.67;1.00;;;10.20;52.60;;;;;;5006583;28;20558;-45
2022/02/19 12:01:32;;;;;;;5.13;1.10;;;10.30;52.50;;;;;;5018428;28;20499;-45
2022/02/19 12:04:20;;;;;;;4.57;1.20;;;10.30;53.30;;;;;;5019175;28;20455;-45
2022/02/19 12:07:06;;;;;;;3.17;1.13;;;10.40;53.20;;;;;;5001981;28;20586;-45
2022/02/19 12:09:54;;;;;;;2.70;1.00;;;10.50;52.50;;;;;;5022795;28;20465;-45
2022/02/19 12:12:21;;;;;;;3.70;1.13;;;10.70;51.50;;;;;;5002504;28;20568;-45
2022/02/19 12:14:50;;;;;;;3.10;1.57;;;10.80;52.30;;;;;;5008769;28;21115;-45
2022/02/19 12:17:40;;;;;;;2.67;1.60;;;10.80;52.10;;;;;;5029302;28;21761;-45
2022/02/19 12:20:09;;;;;;;4.83;1.30;;;10.70;52.00;;;;;;5001986;28;20474;-45
2022/02/19 12:22:36;;;;;;;5.03;1.40;;;10.60;52.20;;;;;;5025685;28;20945;-45
2022/02/19 12:25:05;;;;;;;3.87;1.20;;;10.50;52.90;;;;;;5027855;28;20459;-45
2022/02/19 12:27:34;;;;;;;3.60;1.33;;;10.40;53.30;;;;;;5027812;28;21081;-45
2022/02/19 12:30:26;;;;;;;5.60;1.27;;;10.40;53.40;;;;;;5023957;28;20538;-45
2022/02/19 12:32:55;;;;;;;2.57;1.30;;;10.40;53.50;;;;;;5027315;28;20452;-45
2022/02/19 12:35:45;;;;;;;7.40;1.70;;;10.50;53.20;;;;;;5029376;28;20459;-45
2022/02/19 12:38:14;;;;;;;4.97;1.63;;;10.60;53.80;;;;;;5024660;28;20489;-45
2022/02/19 12:40:41;;;;;;;2.67;1.07;;;10.60;53.10;;;;;;5022781;28;20468;-45
2022/02/19 12:43:14;;;;;;;4.53;1.47;;;10.50;53.10;;;;;;5020301;28;20455;-45
2022/02/19 12:45:44;;;;;;;3.10;1.27;;;10.60;52.50;;;;;;5027499;28;20487;-45
2022/02/19 12:48:11;;;;;;;6.80;1.30;;;10.60;51.60;;;;;;5008160;28;20486;-45
2022/02/19 12:50:38;;;;;;;3.30;1.17;;;10.60;51.60;;;;;;5023299;28;20533;-45
2022/02/19 12:53:05;;;;;;;3.30;1.37;;;10.60;52.40;;;;;;5027059;28;20463;-45
2022/02/19 12:55:32;;;;;;;6.13;1.70;;;10.60;52.50;;;;;;5027666;28;20957;-45
2022/02/19 12:58:01;;;;;;;2.53;1.03;;;10.70;52.20;;;;;;5027006;28;20463;-45
2022/02/19 13:00:28;;;;;;;3.77;1.10;;;10.70;50.90;;;;;;5027119;28;20517;-45
2022/02/19 13:03:04;;;;;;;3.17;0.87;;;10.80;51.70;;;;;;5011843;28;20482;-45
2022/02/19 13:05:34;;;;;;;3.07;1.10;;;10.80;52.10;;;;;;5027109;28;20570;-45
2022/02/19 13:08:08;;;;;;;5.67;1.23;;;10.70;51.60;;;;;;5026515;28;20467;-45
2022/02/19 13:10:36;;;;;;;3.17;1.20;;;10.70;51.50;;;;;;5028156;28;20450;-45
2022/02/19 13:13:16;;;;;;;3.70;1.10;;;10.50;52.00;;;;;;5004301;28;20467;-45